createdAt,value
2019-01-18T09:37:52.701Z,3.45
2019-01-18T09:40:24.317Z,6.95
2019-01-18T09:42:53.742Z,5.08
2019-01-18T09:45:23.042Z,3.92
2019-01-18T09:47:52.409Z,3.98
2019-01-18T09:50:26.143Z,7.15
2019-01-18T09:52:55.938Z,3.35
2019-01-18T09:55:25.243Z,6.83
2019-01-18T09:57:54.744Z,8.08
2019-01-18T10:00:31.950Z,5.83
2019-01-18T10:03:03.176Z,4.15
2019-01-18T10:05:32.369Z,5.28
2019-01-18T10:08:01.982Z,6.25
2019-01-18T10:10:31.283Z,12.60
2019-01-18T10:13:00.411Z,7.10
2019-01-18T10:15:38.282Z,6.90
2019-01-18T10:18:07.599Z,7.53
2019-01-18T10:20:36.782Z,5.17
2019-01-18T10:23:06.184Z,6.17
2019-01-18T10:25:35.584Z,7.53
2019-01-18T10:28:05.302Z,7.35
2019-01-18T10:30:34.903Z,9.25
2019-01-18T10:33:04.202Z,7.65
2019-01-18T10:35:34.022Z,5.15
2019-01-18T10:38:03.422Z,6.17
2019-01-18T10:40:33.417Z,6.95
2019-01-18T10:43:02.843Z,5.03
2019-01-18T10:45:32.044Z,7.87
2019-01-18T10:48:01.343Z,7.47
2019-01-18T10:50:32.063Z,12.43
2019-01-18T10:53:01.882Z,8.15
2019-01-18T10:55:32.102Z,7.75
2019-01-18T10:58:01.622Z,7.62
2019-01-18T11:00:33.264Z,7.90
2019-01-18T11:03:03.883Z,6.70
2019-01-18T11:05:33.602Z,8.98
2019-01-18T11:08:03.003Z,5.65
2019-01-18T11:10:32.302Z,4.70
2019-01-18T11:13:01.687Z,3.87
2019-01-18T11:15:30.982Z,7.70
2019-01-18T11:18:00.502Z,7.53
2019-01-18T11:20:44.424Z,6.97
2019-01-18T11:23:14.982Z,10.08
2019-01-18T11:25:44.162Z,6.58
2019-01-18T11:28:13.421Z,10.43
2019-01-18T11:30:42.582Z,7.70
2019-01-18T11:33:12.083Z,7.05
2019-01-18T11:35:41.390Z,8.85
2019-01-18T11:38:10.878Z,5.65
2019-01-18T11:40:40.775Z,8.43
2019-01-18T11:43:10.102Z,3.50
2019-01-18T11:45:39.802Z,6.15
2019-01-18T11:48:09.190Z,8.23
2019-01-18T11:50:38.283Z,4.37
2019-01-18T11:53:07.703Z,5.65
2019-01-18T11:55:36.906Z,3.33
2019-01-18T11:58:06.202Z,6.85
2019-01-18T12:00:37.949Z,3.30
2019-01-18T12:03:06.727Z,4.17
2019-01-18T12:05:35.852Z,4.17
2019-01-18T12:08:05.260Z,6.60
2019-01-18T12:10:35.865Z,7.35
2019-01-18T12:13:05.884Z,4.40
2019-01-18T12:15:35.183Z,6.60
2019-01-18T12:18:04.583Z,4.67
2019-01-18T12:20:35.222Z,4.22
2019-01-18T12:23:04.823Z,5.00
2019-01-18T12:25:34.218Z,4.22
2019-01-18T12:28:03.516Z,5.10
2019-01-18T12:30:33.962Z,4.40
2019-01-18T12:33:03.363Z,4.17
2019-01-18T12:35:32.442Z,5.42
2019-01-18T12:38:02.162Z,4.17
2019-01-18T12:40:31.263Z,8.65
2019-01-18T12:43:00.649Z,4.05
2019-01-18T12:45:30.263Z,7.78
2019-01-18T12:47:59.682Z,6.15
2019-01-18T12:50:31.004Z,6.67
2019-01-18T12:53:00.197Z,4.05
2019-01-18T12:55:29.302Z,4.72
2019-01-18T12:57:58.604Z,7.40
2019-01-18T13:00:29.443Z,5.58
2019-01-18T13:02:58.932Z,5.40
2019-01-18T13:05:31.299Z,5.90
2019-01-18T13:08:00.454Z,3.70
2019-01-18T13:10:29.722Z,4.78
2019-01-18T13:12:58.902Z,4.47
2019-01-18T13:15:37.643Z,3.65
2019-01-18T13:18:06.942Z,4.83
2019-01-18T13:20:36.342Z,2.60
2019-01-18T13:23:05.845Z,3.33
2019-01-18T13:25:35.133Z,6.58
2019-01-18T13:28:04.330Z,3.25
2019-01-18T13:30:34.063Z,2.95
2019-01-18T13:33:03.440Z,3.83
2019-01-18T13:35:32.880Z,3.15
2019-01-18T13:38:02.334Z,2.70
2019-01-18T13:40:31.763Z,4.67
2019-01-18T13:43:01.450Z,3.45
2019-01-18T13:45:31.056Z,2.60
2019-01-18T13:48:00.386Z,7.42
2019-01-18T13:50:29.658Z,4.78
2019-01-18T13:52:59.082Z,3.62
2019-01-18T13:55:30.449Z,3.83
2019-01-18T13:57:59.722Z,4.97
2019-01-18T14:00:29.210Z,2.98
2019-01-18T14:02:58.747Z,1.75
2019-01-18T14:05:29.683Z,4.72
2019-01-18T14:07:59.283Z,5.70
2019-01-18T14:10:31.339Z,4.22
2019-01-18T14:13:00.646Z,5.17
2019-01-18T14:15:30.244Z,5.20
2019-01-18T14:17:59.643Z,5.05
2019-01-18T14:20:30.915Z,4.28
2019-01-18T14:23:00.484Z,3.22
2019-01-18T14:25:29.915Z,4.33
2019-01-18T14:27:59.228Z,3.52
2019-01-18T14:30:29.112Z,4.30
2019-01-18T14:32:58.627Z,4.78
2019-01-18T14:35:27.830Z,4.87
2019-01-18T14:37:57.229Z,5.03
2019-01-18T14:40:26.747Z,4.40
2019-01-18T14:42:56.244Z,4.22
2019-01-18T14:45:40.803Z,4.55
2019-01-18T14:48:10.187Z,3.98
2019-01-18T14:50:39.604Z,4.97
2019-01-18T14:53:09.107Z,5.72
2019-01-18T14:55:38.803Z,6.17
2019-01-18T14:58:08.923Z,3.70
2019-01-18T15:00:41.693Z,4.00
2019-01-18T15:05:41.596Z,6.28
2019-01-18T15:08:10.589Z,3.12
2019-01-18T15:10:39.158Z,4.12
2019-01-18T15:13:10.605Z,4.75
2019-01-18T15:15:39.400Z,3.60
2019-01-18T15:18:07.937Z,3.98
2019-01-18T15:20:36.508Z,4.25
2019-01-18T15:23:05.258Z,5.03
2019-01-18T15:25:33.788Z,4.05
2019-01-18T15:28:02.467Z,4.47
2019-01-18T15:30:32.967Z,6.90
2019-01-18T15:33:01.659Z,5.50
2019-01-18T15:35:38.158Z,8.05
2019-01-18T15:38:07.240Z,4.08
2019-01-18T15:40:39.402Z,6.37
2019-01-18T15:43:08.209Z,5.00
2019-01-18T15:45:36.769Z,4.03
2019-01-18T15:48:05.397Z,5.00
2019-01-18T15:50:36.291Z,4.10
2019-01-18T15:53:05.061Z,8.05
2019-01-18T15:55:33.673Z,4.55
2019-01-18T15:58:02.301Z,6.28
2019-01-18T16:00:39.735Z,6.12
2019-01-18T16:03:15.641Z,8.53
2019-01-18T16:05:39.625Z,5.47
2019-01-18T16:08:08.342Z,5.90
2019-01-18T16:10:40.139Z,4.10
2019-01-18T16:13:07.339Z,5.20
2019-01-18T16:15:57.387Z,5.22
2019-01-18T16:18:26.188Z,5.42
2019-01-18T16:20:54.717Z,6.90
2019-01-18T16:23:23.286Z,5.55
2019-01-18T16:25:51.817Z,3.85
2019-01-18T16:28:20.428Z,4.58
2019-01-18T16:30:49.268Z,3.77
2019-01-18T16:33:23.361Z,4.37
2019-01-18T16:35:48.210Z,5.62
2019-01-18T16:38:16.996Z,5.17
2019-01-18T16:40:45.551Z,3.92
2019-01-18T16:43:26.260Z,5.50
2019-01-18T16:45:54.861Z,5.72
2019-01-18T16:48:23.520Z,6.30
2019-01-18T16:50:52.286Z,6.15
2019-01-18T16:53:26.563Z,7.55
2019-01-18T16:55:55.223Z,9.68
2019-01-18T16:58:23.933Z,16.07
2019-01-18T17:00:55.334Z,12.45
2019-01-18T17:03:29.960Z,10.85
2019-01-18T17:05:54.262Z,13.25
2019-01-18T17:08:22.791Z,12.15
2019-01-18T17:10:53.764Z,14.03
2019-01-18T17:13:26.910Z,12.60
2019-01-18T17:15:56.403Z,9.38
2019-01-18T17:18:26.183Z,18.32
2019-01-18T17:20:55.309Z,15.80
2019-01-18T17:23:24.596Z,22.90
2019-01-18T17:25:53.239Z,20.65
2019-01-18T17:28:21.768Z,17.60
2019-01-18T17:30:51.338Z,11.53
2019-01-18T17:33:19.939Z,15.20
2019-01-18T17:36:00.657Z,11.78
2019-01-18T17:38:44.487Z,12.78
2019-01-18T17:41:16.209Z,11.50
2019-01-18T17:43:48.099Z,13.30
2019-01-18T17:46:19.829Z,8.23
2019-01-18T17:49:00.500Z,16.55
2019-01-18T17:51:35.169Z,12.90
2019-01-18T17:54:07.147Z,14.83
2019-01-18T17:56:53.792Z,24.37
2019-01-18T17:59:25.725Z,15.00
2019-01-18T18:02:03.591Z,13.28
2019-01-18T18:04:52.271Z,18.30
2019-01-18T18:07:39.283Z,18.67
2019-01-18T18:10:29.293Z,17.87
2019-01-18T18:13:09.613Z,13.83
2019-01-18T18:15:41.585Z,31.90
2019-01-18T18:18:31.276Z,20.70
2019-01-18T18:21:15.276Z,15.83
2019-01-18T18:24:04.838Z,11.53
2019-01-18T18:26:57.340Z,20.40
2019-01-18T18:29:47.227Z,9.75
2019-01-18T18:32:19.495Z,13.03
2019-01-18T18:35:19.012Z,14.83
2019-01-18T18:38:03.346Z,10.90
2019-01-18T18:40:37.989Z,23.92
2019-01-18T18:43:15.682Z,18.10
2019-01-18T18:45:59.429Z,36.08
2019-01-18T18:48:31.288Z,18.52
2019-01-18T18:51:11.852Z,20.27
2019-01-18T18:54:00.701Z,14.33
2019-01-18T18:56:44.630Z,8.73
2019-01-18T18:59:25.822Z,18.50
2019-01-18T19:02:12.640Z,5.12
2019-01-18T19:04:50.441Z,19.05
2019-01-18T19:07:43.903Z,15.88
2019-01-18T19:10:21.482Z,19.23
2019-01-18T19:13:10.039Z,30.57
2019-01-18T19:16:03.407Z,16.00
2019-01-18T19:18:57.997Z,9.15
2019-01-18T19:21:51.366Z,17.60
2019-01-18T19:24:35.208Z,11.35
2019-01-18T19:27:25.906Z,15.98
2019-01-18T19:30:19.067Z,15.70
2019-01-18T19:33:15.193Z,13.15
2019-01-18T19:36:17.255Z,14.70
2019-01-18T19:39:07.449Z,15.43
2019-01-18T19:41:51.099Z,18.27
2019-01-18T19:44:29.091Z,17.67
2019-01-18T19:47:04.011Z,26.55
2019-01-18T19:49:51.560Z,15.10
2019-01-18T19:52:29.141Z,17.42
2019-01-18T19:55:21.072Z,10.15
2019-01-18T19:58:25.181Z,12.68
2019-01-18T20:01:24.598Z,14.40
2019-01-18T20:04:14.482Z,19.00
2019-01-18T20:06:46.542Z,18.80
2019-01-18T20:09:30.281Z,22.62
2019-01-18T20:12:05.016Z,19.07
2019-01-18T20:14:45.666Z,21.30
2019-01-18T20:17:33.003Z,25.77
2019-01-18T20:20:10.895Z,13.35
2019-01-18T20:22:58.137Z,10.13
2019-01-18T20:25:33.143Z,14.05
2019-01-18T20:28:17.617Z,26.42
2019-01-18T20:31:17.350Z,15.30
2019-01-18T20:34:10.558Z,24.98
2019-01-18T20:36:54.526Z,18.40
2019-01-18T20:39:35.606Z,7.50
2019-01-18T20:42:31.754Z,35.75
2019-01-18T20:45:12.931Z,19.42
2019-01-18T20:48:13.751Z,28.55
2019-01-18T20:51:02.512Z,27.82
2019-01-18T20:53:40.301Z,22.32
2019-01-18T20:56:21.295Z,15.40
2019-01-18T20:59:18.541Z,19.82
2019-01-18T21:01:59.612Z,22.52
2019-01-18T21:04:43.554Z,28.30
2019-01-18T21:07:15.522Z,18.75
2019-01-18T21:09:59.140Z,14.83
2019-01-18T21:12:31.031Z,18.42
2019-01-18T21:15:14.961Z,69.53
2019-01-18T21:17:55.828Z,28.55
2019-01-18T21:20:33.513Z,32.93
2019-01-18T21:23:11.126Z,24.80
2019-01-18T21:25:55.159Z,27.37
2019-01-18T21:28:36.133Z,28.20
2019-01-18T21:31:32.155Z,25.25
2019-01-18T21:34:22.357Z,32.55
2019-01-18T21:37:09.165Z,43.87
2019-01-18T21:40:10.015Z,36.40
2019-01-18T21:42:56.827Z,26.93
2019-01-18T21:45:34.510Z,32.75
2019-01-18T21:48:18.468Z,18.77
2019-01-18T21:51:08.247Z,19.37
2019-01-18T21:53:59.655Z,25.27
2019-01-18T21:56:31.742Z,37.10
2019-01-18T21:59:06.661Z,55.90
2019-01-18T22:02:01.451Z,27.05
2019-01-18T22:04:41.913Z,23.65
2019-01-18T22:07:29.168Z,23.75
2019-01-18T22:10:22.200Z,31.20
2019-01-18T22:13:06.129Z,29.65
2019-01-18T22:15:53.163Z,37.48
2019-01-18T22:18:25.198Z,40.52
2019-01-18T22:21:23.073Z,33.30
2019-01-18T22:23:55.109Z,31.35
2019-01-18T22:26:27.014Z,12.78
2019-01-18T22:29:15.971Z,35.50
2019-01-18T22:31:59.900Z,73.10
2019-01-18T22:34:32.097Z,123.30
2019-01-18T22:37:36.201Z,24.72
2019-01-18T22:40:14.312Z,33.18
2019-01-18T22:42:57.946Z,44.83
2019-01-18T22:45:32.576Z,106.85
2019-01-18T22:48:16.416Z,44.50
2019-01-18T22:51:05.166Z,25.65
2019-01-18T22:53:46.039Z,26.62
2019-01-18T22:56:24.452Z,25.72
2019-01-18T22:59:05.318Z,43.15
2019-01-18T23:01:46.196Z,44.30
2019-01-18T23:04:27.376Z,21.42
2019-01-18T23:07:16.121Z,19.77
2019-01-18T23:10:03.233Z,33.88
2019-01-18T23:12:47.396Z,34.55
2019-01-18T23:15:46.475Z,20.43
2019-01-18T23:18:30.215Z,24.27
2019-01-18T23:21:17.154Z,26.42
2019-01-18T23:24:07.128Z,24.77
2019-01-18T23:26:58.956Z,91.42
2019-01-18T23:29:39.828Z,27.45
2019-01-18T23:32:27.158Z,29.40
2019-01-18T23:35:22.051Z,21.68
2019-01-18T23:37:59.142Z,31.70
2019-01-18T23:40:46.351Z,27.15
2019-01-18T23:43:24.043Z,113.25
2019-01-18T23:46:10.961Z,33.83
2019-01-18T23:49:07.611Z,23.57
2019-01-18T23:51:51.050Z,32.93
2019-01-18T23:54:34.972Z,34.67
2019-01-18T23:57:22.294Z,41.50
